• Join FlightAware (Why Join?)
  • Login
  • US Flag 
10:25AM EST


 

Airport Tracker/Info


-or-


 

Live Flight TrackerFlight Track Log ✈ LXJ535 ✈ 08-Jul-2013 ✈ KDAL - KHOU

Flight Track Log - Related Links

Times and Time Zones

All times are in EDT time to prevent confusion due to time zone crossing. See the LXJ535 flight status page for this flight to view local times or setup timezone preferences in your user account.

Time Position Orientation Groundspeed Altitude Reporting Facility
EDT Latitude Longitude Course Direction KTS MPH feet Rate Location/Type
10:14AM 32.8333 -96.8333 140° Southeast 158 182 1,600  Level Dallas / Fort Worth TRACON
10:14AM 32.8000 -96.8000 140° Southeast 231 266 4,400 3,420 Climbing Dallas / Fort Worth TRACON
10:15AM 32.7500 -96.7667 151° Southeast 289 333 7,800 2,160 Climbing Dallas / Fort Worth TRACON
10:18AM 32.5461 -96.8467 198° South 339 390 11,600 1,980 Climbing Fort Worth Center
10:19AM 32.4586 -96.8767 196° South 359 413 14,500 3,060 Climbing Fort Worth Center
10:20AM 32.3481 -96.8847 184° South 364 419 17,800 3,000 Climbing Fort Worth Center
10:21AM 32.2561 -96.8753 175° South 369 425 20,500 2,700 Climbing Fort Worth Center
10:22AM 32.1411 -96.8686 177° South 369 425 23,200 1,980 Climbing Fort Worth Center
10:23AM 32.0325 -96.8572 175° South 381 438 24,500 900 Climbing Fort Worth Center
10:24AM 31.9239 -96.8528 178° South 409 471 25,000 240 Climbing Fort Worth Center
10:25AM 31.8028 -96.8439 176° South 436 502 25,000  Level Fort Worth Center
10:26AM 31.6797 -96.8372 177° South 447 514 25,000  Level Fort Worth Center
10:27AM 31.4939 -96.8028 171° South 447 514 25,000  Level Houston Center
10:28AM 31.3683 -96.7825 172° South 448 516 25,000  Level Houston Center
10:29AM 31.2431 -96.7633 173° South 448 516 25,000  Level Houston Center
10:30AM 31.1178 -96.7431 172° South 448 516 25,000  Level Houston Center
10:31AM 30.9950 -96.7233 172° South 440 506 25,000  Level Houston Center
10:32AM 30.8822 -96.7058 172° South 409 471 25,000  Level Houston Center
10:33AM 30.7761 -96.6892 172° South 384 442 25,000 -960 Level Houston Center
10:34AM 30.6683 -96.6719 172° South 384 442 23,100 -2,040 Descending Houston Center
10:35AM 30.5856 -96.5997 143° Southeast 364 419 20,900 -2,280 Descending Houston Center
10:37AM 30.4994 -96.5114 139° Southeast 350 403 18,500 -1,980 Descending Houston Center
10:38AM 30.4303 -96.4378 137° Southeast 336 387 16,900 -1,680 Descending Houston Center
10:38AM 30.3781 -96.3847 139° Southeast 327 376 15,500 -1,740 Descending Houston Center
10:39AM 30.3369 -96.3433 139° Southeast 319 367 14,500 -1,620 Descending Houston Center
10:40AM 30.2961 -96.2975 136° Southeast 321 369 13,400 -1,740 Descending Houston Center
10:41AM 30.2253 -96.2264 139° Southeast 331 381 11,500 -1,200 Descending Houston Center
10:42AM 30.1439 -96.1739 151° Southeast 331 381 11,000 -240 Descending Houston Center
10:43AM 30.0256 -96.1103 155° Southeast 329 379 11,000 -60 Level Houston Center
10:44AM 29.9814 -96.0861 155° Southeast 322 371 10,900 -1,020 Descending Houston Center
10:45AM 29.9031 -96.0450 156° South 264 304 9,200 -1,500 Descending Houston Center
10:46AM 29.8328 -96.0078 155° Southeast 274 315 7,800 -1,080 Descending Houston Center
10:47AM 29.7711 -95.9739 154° Southeast 270 311 7,000 -420 Descending Houston Center
10:48AM 29.7172 -95.8903 127° Southeast 274 315 7,000  Level Houston Center
10:49AM 29.6736 -95.8189 125° Southeast 274 315 7,000  Level Houston Center
10:50AM 29.6308 -95.7481 125° Southeast 273 314 7,000 -360 Level Houston Center
10:51AM 29.5858 -95.6792 127° Southeast 271 312 6,300 -540 Descending Houston Center
10:52AM 29.5317 -95.6203 137° Southeast 270 311 6,000 -120 Descending Houston Center
10:53AM 29.4800 -95.5608 135° Southeast 266 306 6,100  Climbing Houston Center
10:54AM 29.4328 -95.4950 129° Southeast 230 265 6,000 -60 Descending Houston Center
10:55AM 29.3931 -95.4406 130° Southeast 225 259 6,000  Level Houston Center
10:56AM 29.3619 -95.3819 121° Southeast 225 259 6,100  Climbing Houston Center
10:57AM 29.3644 -95.3064 88° East 239 275 6,000 -60 Descending Houston Center
10:58AM 29.3625 -95.2300 92° East 243 280 6,000  Level Houston Center
10:59AM 29.3633 -95.1422 89° East 228 262 6,000  Level Houston Center
11:00AM 29.3697 -95.0767 84° East 186 214 6,100  Climbing Houston Center
11:01AM 29.4125 -95.0378 38° Northeast 198 228 6,100 -60 Level Houston Center
11:02AM 29.4611 -95.0631 336° Northwest 202 232 6,000 -60 Descending Houston Center
11:03AM 29.4925 -95.0400 33° Northeast 185 213 6,000  Level Houston Center
11:04AM 29.4606 -94.9911 127° Southeast 184 212 6,100  Climbing Houston Center
11:05AM 29.4269 -94.9472 131° Southeast 188 216 6,000  Descending Houston Center
11:06AM 29.3889 -94.9014 134° Southeast 195 224 6,100  Climbing Houston Center
11:07AM 29.3658 -94.9453 239° Southwest 203 234 6,000 -60 Descending Houston Center
11:08AM 29.4092 -95.0022 311° West 210 242 6,000  Level Houston Center
11:10AM 29.4461 -95.0433 316° Northwest 210 242 6,000 -600 Level Houston Center
11:11AM 29.5011 -95.0872 325° Northwest 232 267 4,800 -1,080 Descending Houston Center
11:12AM 29.5033 -95.1561 272° West 217 250 4,000 -720 Descending Houston Center
11:13AM 29.4567 -95.1739 198° South 229 264 3,500 -540 Descending Houston Center
11:14AM 29.4825 -95.1131 64° Northeast 268 308 3,000 -780 Descending Houston Center
11:15AM 29.5386 -95.1519 329° Northwest 233 268 2,000 -600 Descending Houston Center
11:16AM 29.5761 -95.1992 312° West 205 236 1,700 -600 Descending Houston Center
11:17AM 29.6050 -95.2328 315° West 131 151 900 -780 Descending Houston Center
11:18AM 29.6306 -95.2608 316° Northwest 122 140 300 -600 Descending Houston Center